Time;durP1;ratioP1;P1;durP2;ratioP2;P2;SDS_P1;SDS_P2;PMS_P1;PMS_P2;Temp;Humidity;BMP_temperature;BMP_pressure;BME280_temperature;BME280_humidity;BME280_pressure;Samples;Min_cycle;Max_cycle;Signal;HPM_P1;HPM_P2
2021/08/15 00:00:10;;;;;;;9.00;5.05;;;;;;;20.25;60.26;100847.09;4989847;28;20178;-68
2021/08/15 00:02:36;;;;;;;8.37;4.70;;;;;;;20.27;60.26;100848.00;4973495;28;20958;-68
2021/08/15 00:05:03;;;;;;;8.18;4.68;;;;;;;20.42;59.44;100844.53;4973229;28;20392;-68
2021/08/15 00:07:28;;;;;;;7.70;5.30;;;;;;;20.68;58.69;100839.31;4973148;28;20042;-68
2021/08/15 00:09:54;;;;;;;8.50;5.22;;;;;;;20.79;58.33;100832.38;4973338;28;20035;-68
2021/08/15 00:12:19;;;;;;;8.48;5.03;;;;;;;20.92;57.77;100832.38;4973097;28;20058;-69
2021/08/15 00:14:45;;;;;;;8.40;4.78;;;;;;;20.91;57.71;100833.25;4973198;28;20070;-67
2021/08/15 00:17:10;;;;;;;8.23;4.95;;;;;;;20.94;57.80;100843.75;4973044;28;20125;-66
2021/08/15 00:19:35;;;;;;;9.35;4.90;;;;;;;20.90;57.91;100847.22;4973206;28;20038;-66
2021/08/15 00:22:01;;;;;;;8.88;4.72;;;;;;;20.70;58.52;100832.34;4934755;29;20043;-65
2021/08/15 00:24:27;;;;;;;13.55;5.28;;;;;;;20.54;58.95;100841.94;4934650;29;20048;-69
2021/08/15 00:26:53;;;;;;;13.25;4.70;;;;;;;20.46;59.25;100846.28;4934528;29;20048;-69
2021/08/15 00:29:18;;;;;;;9.00;5.00;;;;;;;20.41;59.64;100848.91;4934724;29;20130;-67
2021/08/15 00:31:44;;;;;;;7.72;5.22;;;;;;;20.39;59.93;100858.50;4923196;29;20058;-69
2021/08/15 00:34:09;;;;;;;9.07;5.05;;;;;;;20.41;59.72;100855.88;4929175;29;20028;-70
2021/08/15 00:36:36;;;;;;;7.82;4.90;;;;;;;20.56;59.30;100847.19;4920415;29;20044;-69
2021/08/15 00:39:02;;;;;;;10.70;5.22;;;;;;;20.66;59.03;100848.94;4933884;29;20095;-66
2021/08/15 00:41:27;;;;;;;9.63;4.93;;;;;;;20.62;58.92;100815.72;4933821;29;20056;-65
2021/08/15 00:43:53;;;;;;;8.48;4.63;;;;;;;20.76;58.94;100842.88;4932354;29;20054;-69
2021/08/15 00:46:18;;;;;;;9.55;5.10;;;;;;;20.81;58.90;100837.63;4914845;29;20039;-68
2021/08/15 00:48:44;;;;;;;10.30;4.82;;;;;;;21.09;57.91;100835.88;4914644;29;20040;-65
2021/08/15 00:51:09;;;;;;;10.77;4.70;;;;;;;21.36;56.90;100834.09;4914370;29;20031;-67
2021/08/15 00:53:36;;;;;;;8.10;4.88;;;;;;;21.43;56.59;100809.56;4944723;29;20114;-69
2021/08/15 00:56:03;;;;;;;7.60;5.03;;;;;;;21.44;56.70;100824.44;4955092;28;20035;-67
2021/08/15 00:58:31;;;;;;;9.27;4.78;;;;;;;21.09;57.77;100825.38;4955054;28;20437;-66
2021/08/15 01:01:04;;;;;;;8.32;4.90;;;;;;;21.26;57.65;100827.97;4955068;28;20557;-65
2021/08/15 01:03:31;;;;;;;9.27;5.20;;;;;;;21.24;57.40;100826.25;4954881;28;20031;-70
2021/08/15 01:05:57;;;;;;;10.65;5.07;;;;;;;20.93;58.08;100821.00;4954956;28;20039;-66
2021/08/15 01:08:23;;;;;;;9.52;4.80;;;;;;;20.80;57.98;100812.28;4954903;28;20031;-69
2021/08/15 01:10:48;;;;;;;8.48;4.82;;;;;;;20.85;58.80;100811.38;4954748;28;20028;-68
2021/08/15 01:13:15;;;;;;;8.82;5.63;;;;;;;20.67;59.15;100778.13;4954502;28;20130;-65
2021/08/15 01:15:41;;;;;;;7.40;4.53;;;;;;;20.74;60.10;100813.13;4954544;28;20033;-69
2021/08/15 01:18:21;;;;;;;10.02;5.05;;;;;;;20.57;61.42;100812.22;4954504;28;20043;-72
2021/08/15 01:20:47;;;;;;;7.40;4.63;;;;;;;20.35;61.90;100801.69;4954916;28;20094;-69
2021/08/15 01:23:12;;;;;;;8.48;5.00;;;;;;;20.21;61.62;100775.44;4954729;28;20466;-68
2021/08/15 01:25:38;;;;;;;9.75;5.40;;;;;;;20.40;62.12;100818.31;4954322;28;20118;-68
2021/08/15 01:28:04;;;;;;;9.77;4.72;;;;;;;20.45;61.97;100810.44;4954394;28;20395;-66
2021/08/15 01:30:30;;;;;;;10.05;5.05;;;;;;;20.29;61.83;100773.72;4954663;29;20053;-67
2021/08/15 01:32:55;;;;;;;9.18;4.65;;;;;;;20.54;61.74;100813.09;4954595;28;20035;-70
2021/08/15 01:35:20;;;;;;;8.77;5.25;;;;;;;20.52;61.78;100810.47;4954130;28;20172;-66
2021/08/15 01:37:46;;;;;;;9.32;4.80;;;;;;;20.59;61.85;100799.97;4954172;28;20031;-66
2021/08/15 01:40:13;;;;;;;10.25;4.78;;;;;;;20.57;61.98;100805.19;4954315;28;20055;-67
2021/08/15 01:42:38;;;;;;;9.55;5.55;;;;;;;20.48;61.75;100813.06;4954111;28;20498;-67
2021/08/15 01:45:12;;;;;;;11.30;5.15;;;;;;;20.51;61.69;100808.72;4954122;28;20030;-68
2021/08/15 01:47:38;;;;;;;8.10;4.57;;;;;;;20.30;61.66;100799.06;4936181;29;20410;-69
2021/08/15 01:50:04;;;;;;;7.85;5.00;;;;;;;20.30;61.79;100804.31;4954077;28;20027;-70
2021/08/15 01:52:29;;;;;;;8.20;5.00;;;;;;;20.33;61.87;100806.91;4953946;28;20478;-66
2021/08/15 01:54:55;;;;;;;7.53;5.07;;;;;;;20.31;61.38;100774.59;4953842;28;20035;-69
2021/08/15 01:57:20;;;;;;;10.13;5.40;;;;;;;20.63;61.26;100806.97;4954006;28;20086;-66
2021/08/15 01:59:46;;;;;;;11.25;5.25;;;;;;;20.72;60.95;100814.88;4953811;28;20031;-69
2021/08/15 02:02:11;;;;;;;9.10;5.28;;;;;;;20.66;60.41;100775.47;4968806;28;20538;-68
2021/08/15 02:04:36;;;;;;;14.82;5.95;;;;;;;20.96;62.64;100814.00;4953774;28;20510;-69
2021/08/15 02:07:04;;;;;;;14.05;5.97;;;;;;;20.96;62.19;100818.38;4953671;29;20410;-69
2021/08/15 02:09:30;;;;;;;12.95;6.47;;;;;;;21.01;62.37;100809.63;4952978;28;20409;-66
2021/08/15 02:11:55;;;;;;;20.20;6.28;;;;;;;20.97;62.77;100812.25;4967464;28;20055;-66
2021/08/15 02:14:21;;;;;;;17.08;5.97;;;;;;;21.01;62.63;100821.91;4953673;28;20430;-67
2021/08/15 02:16:46;;;;;;;19.35;6.80;;;;;;;20.74;62.82;100788.66;4953545;28;20035;-67
2021/08/15 02:19:11;;;;;;;19.15;6.25;;;;;;;20.87;63.06;100827.13;4953653;28;20023;-65
2021/08/15 02:21:38;;;;;;;13.43;5.93;;;;;;;20.71;63.52;100828.88;4953314;28;20089;-74
2021/08/15 02:24:04;;;;;;;20.35;6.63;;;;;;;20.75;63.12;100822.75;4953135;28;20035;-69
2021/08/15 02:26:30;;;;;;;17.58;6.10;;;;;;;20.72;63.61;100817.50;4953268;28;20035;-68
2021/08/15 02:28:55;;;;;;;13.75;5.97;;;;;;;20.75;63.21;100827.09;4953358;28;20027;-69
2021/08/15 02:31:21;;;;;;;16.05;5.82;;;;;;;20.62;62.53;100786.84;4953746;29;20117;-66
2021/08/15 02:33:46;;;;;;;15.38;6.07;;;;;;;20.96;62.60;100818.38;4953386;29;20035;-67
2021/08/15 02:36:12;;;;;;;16.80;6.03;;;;;;;20.88;62.60;100791.28;4953295;28;20182;-68
2021/08/15 02:38:37;;;;;;;19.80;5.88;;;;;;;20.91;60.91;100820.13;4953254;28;20027;-71
2021/08/15 02:41:03;;;;;;;9.88;5.18;;;;;;;20.76;59.11;100787.78;4953281;28;20039;-65
2021/08/15 02:43:29;;;;;;;12.50;4.95;;;;;;;20.96;57.50;100821.88;4953096;28;20031;-68
2021/08/15 02:45:54;;;;;;;11.50;5.45;;;;;;;20.95;56.67;100814.88;4953270;28;20497;-69
2021/08/15 02:48:19;;;;;;;11.00;5.32;;;;;;;20.94;56.55;100801.78;4953560;28;20023;-69
2021/08/15 02:50:45;;;;;;;10.65;5.22;;;;;;;21.09;55.64;100821.88;4967882;28;20413;-69
2021/08/15 02:53:10;;;;;;;8.82;4.88;;;;;;;20.99;55.10;100800.88;4953066;28;20401;-68
2021/08/15 02:55:36;;;;;;;11.95;5.40;;;;;;;21.09;55.76;100816.63;4953120;28;20031;-66
2021/08/15 02:58:01;;;;;;;11.00;5.35;;;;;;;20.84;56.05;100820.13;4953309;28;20031;-67
2021/08/15 03:00:27;;;;;;;10.20;5.35;;;;;;;20.55;57.24;100816.56;4953351;28;20027;-69
2021/08/15 03:02:52;;;;;;;8.25;5.22;;;;;;;20.52;57.41;100823.59;4971776;28;20058;-69
2021/08/15 03:05:19;;;;;;;11.13;5.40;;;;;;;20.30;57.50;100788.56;4971817;28;20414;-66
2021/08/15 03:07:45;;;;;;;10.70;5.43;;;;;;;20.63;56.72;100820.09;4972172;28;20462;-66
2021/08/15 03:10:10;;;;;;;10.40;5.13;;;;;;;20.77;56.03;100820.13;4972350;28;20066;-72
2021/08/15 03:12:36;;;;;;;9.23;5.25;;;;;;;20.86;55.67;100820.16;4972160;28;20413;-67
2021/08/15 03:15:02;;;;;;;10.27;5.40;;;;;;;20.69;55.95;100796.47;4987244;28;20030;-72
2021/08/15 03:17:28;;;;;;;13.70;5.75;;;;;;;20.71;56.21;100820.09;4972456;28;20031;-70
2021/08/15 03:19:53;;;;;;;10.75;5.30;;;;;;;20.65;56.29;100828.84;4972120;28;20022;-70
2021/08/15 03:22:19;;;;;;;10.45;5.38;;;;;;;20.60;56.47;100826.22;4974368;28;20062;-66
2021/08/15 03:24:44;;;;;;;17.15;6.45;;;;;;;20.57;55.76;100826.19;4975878;28;20039;-66
2021/08/15 03:27:10;;;;;;;15.23;5.93;;;;;;;20.46;56.26;100833.16;4976106;28;20022;-69
2021/08/15 03:29:35;;;;;;;12.18;5.45;;;;;;;20.42;56.13;100836.66;4976012;28;20080;-70
2021/08/15 03:32:01;;;;;;;12.95;6.32;;;;;;;20.11;55.73;100769.31;4975856;28;20632;-70
2021/08/15 03:34:26;;;;;;;11.85;6.43;;;;;;;20.46;56.09;100826.19;4975661;28;20109;-69
2021/08/15 03:36:52;;;;;;;12.68;5.75;;;;;;;20.15;56.86;100796.38;4975791;28;20030;-70
2021/08/15 03:39:18;;;;;;;11.73;5.57;;;;;;;20.38;56.95;100832.28;4975718;28;20023;-68
2021/08/15 03:41:44;;;;;;;16.83;6.40;;;;;;;20.36;57.01;100814.81;4975888;28;20031;-68
2021/08/15 03:44:09;;;;;;;12.20;5.63;;;;;;;20.14;57.02;100789.41;4989689;28;20038;-67
2021/08/15 03:46:36;;;;;;;14.43;6.60;;;;;;;20.02;57.86;100795.47;4975509;28;20490;-67
2021/08/15 03:49:02;;;;;;;12.30;5.70;;;;;;;20.05;59.38;100816.47;4975536;28;20525;-72
2021/08/15 03:51:27;;;;;;;16.35;6.45;;;;;;;20.01;61.17;100817.31;4975544;28;20054;-70
2021/08/15 03:53:53;;;;;;;22.35;7.20;;;;;;;19.92;62.04;100814.69;4990593;28;20046;-68
2021/08/15 03:56:18;;;;;;;40.70;8.18;;;;;;;19.58;62.36;100828.44;4975576;28;20037;-73
2021/08/15 03:58:44;;;;;;;16.42;6.78;;;;;;;19.30;63.05;100827.41;4975505;28;20470;-71
2021/08/15 04:01:09;;;;;;;19.15;6.93;;;;;;;19.02;63.81;100808.88;4975232;28;20031;-67
2021/08/15 04:03:36;;;;;;;13.63;6.65;;;;;;;18.72;64.97;100792.06;4975242;28;20424;-69
2021/08/15 04:06:07;;;;;;;15.52;6.47;;;;;;;18.89;65.36;100824.47;4975046;28;20029;-69
2021/08/15 04:08:33;;;;;;;8.75;5.90;;;;;;;18.73;65.29;100788.59;4975157;28;20038;-67
2021/08/15 04:10:58;;;;;;;14.93;6.70;;;;;;;19.02;65.26;100827.22;4975027;28;20027;-67
2021/08/15 04:13:24;;;;;;;16.67;6.97;;;;;;;18.99;65.23;100822.84;4975022;28;20053;-70
2021/08/15 04:15:50;;;;;;;19.77;7.18;;;;;;;19.05;65.48;100819.38;4974448;28;20031;-70
2021/08/15 04:18:16;;;;;;;24.25;8.30;;;;;;;19.09;65.27;100821.16;4975256;28;20498;-70
2021/08/15 04:20:41;;;;;;;27.58;7.85;;;;;;;19.03;66.17;100823.72;4974838;28;20081;-68
2021/08/15 04:23:06;;;;;;;16.50;8.00;;;;;;;19.05;66.05;100827.22;4974866;28;20071;-71
2021/08/15 04:25:32;;;;;;;16.58;9.02;;;;;;;18.92;65.61;100798.34;4989687;28;20474;-70
2021/08/15 04:27:57;;;;;;;18.92;9.90;;;;;;;18.92;66.18;100821.88;4974973;28;20031;-70
2021/08/15 04:30:23;;;;;;;23.20;10.23;;;;;;;18.95;65.85;100815.78;4974940;28;20031;-67
2021/08/15 04:32:48;;;;;;;22.27;9.20;;;;;;;19.05;66.15;100819.38;4974347;28;20461;-69
2021/08/15 04:35:14;;;;;;;18.58;8.50;;;;;;;19.05;66.66;100816.75;4974663;28;20497;-73
2021/08/15 04:37:39;;;;;;;20.02;8.73;;;;;;;19.42;65.80;100811.78;4974889;28;20462;-72
2021/08/15 04:40:05;;;;;;;17.98;7.55;;;;;;;19.65;65.33;100798.81;4974951;28;20478;-72
2021/08/15 04:42:31;;;;;;;15.15;7.35;;;;;;;19.90;66.62;100806.81;4974730;28;20027;-69
2021/08/15 04:44:56;;;;;;;13.98;6.57;;;;;;;20.14;67.71;100816.50;4974592;28;20053;-72
2021/08/15 04:47:22;;;;;;;13.40;6.65;;;;;;;20.06;67.64;100780.66;4974594;28;20042;-66
2021/08/15 04:49:47;;;;;;;19.33;6.97;;;;;;;20.37;66.44;100818.28;4974508;28;20023;-69
2021/08/15 04:52:13;;;;;;;20.33;7.85;;;;;;;20.41;65.38;100806.97;4974650;28;20031;-69
2021/08/15 04:54:38;;;;;;;22.83;7.35;;;;;;;20.25;64.54;100778.94;4974047;28;20027;-73
2021/08/15 04:57:04;;;;;;;18.05;6.63;;;;;;;20.52;64.18;100814.81;4974376;28;20027;-72
2021/08/15 04:59:29;;;;;;;25.90;7.25;;;;;;;20.09;65.59;100830.44;4974457;28;20053;-72
2021/08/15 05:01:55;;;;;;;20.60;7.03;;;;;;;19.60;67.31;100836.31;4973596;28;20027;-70
2021/08/15 05:04:20;;;;;;;21.67;7.15;;;;;;;19.07;68.81;100796.72;4973562;28;20517;-69
2021/08/15 05:06:46;;;;;;;15.55;7.20;;;;;;;19.73;66.95;100828.50;4973292;28;20030;-67
2021/08/15 05:09:12;;;;;;;14.50;7.00;;;;;;;20.03;65.96;100826.94;4973835;28;20378;-70
2021/08/15 05:11:38;;;;;;;18.60;7.00;;;;;;;19.96;66.26;100824.28;4972823;28;20043;-70
2021/08/15 05:14:06;;;;;;;18.17;6.95;;;;;;;19.62;68.26;100830.22;4973610;28;20019;-70
2021/08/15 05:16:31;;;;;;;12.60;7.80;;;;;;;19.56;68.45;100832.78;4971812;28;20494;-68
2021/08/15 05:18:57;;;;;;;17.02;6.78;;;;;;;19.68;67.92;100830.25;4973727;28;20118;-69
2021/08/15 05:21:22;;;;;;;14.25;6.90;;;;;;;19.68;68.28;100829.38;4973398;28;20387;-69
2021/08/15 05:23:47;;;;;;;15.20;6.95;;;;;;;19.65;68.58;100834.59;4973482;28;20030;-70
2021/08/15 05:26:13;;;;;;;14.90;6.72;;;;;;;19.92;68.42;100814.69;4973849;28;20474;-68
2021/08/15 05:28:38;;;;;;;13.18;6.75;;;;;;;20.03;68.09;100826.94;4973426;28;20374;-69
2021/08/15 05:31:04;;;;;;;18.95;7.10;;;;;;;20.18;68.13;100820.88;4973462;28;20027;-67
2021/08/15 05:33:29;;;;;;;13.63;6.40;;;;;;;20.24;68.17;100821.75;4973371;28;20090;-69
2021/08/15 05:35:55;;;;;;;10.65;6.18;;;;;;;20.16;67.81;100801.66;4973118;28;20030;-70
2021/08/15 05:38:20;;;;;;;9.50;6.50;;;;;;;20.16;69.81;100825.25;4973483;28;20090;-71
2021/08/15 05:40:46;;;;;;;12.38;6.45;;;;;;;20.24;69.05;100827.88;4972416;28;20034;-68
2021/08/15 05:43:12;;;;;;;19.48;6.63;;;;;;;20.53;68.81;100820.06;4972913;28;20026;-66
2021/08/15 05:45:37;;;;;;;11.75;5.75;;;;;;;20.50;69.01;100804.34;4972111;28;20543;-70
2021/08/15 05:48:07;;;;;;;9.30;5.47;;;;;;;20.72;68.91;100811.38;4973253;28;20035;-69
2021/08/15 05:50:32;;;;;;;;;;;;;;;20.91;67.51;100812.25;4973328;28;20541;-67
2021/08/15 05:52:58;;;;;;;10.52;5.80;;;;;;;21.06;66.73;100821.88;4973181;28;20016;-71
2021/08/15 05:55:23;;;;;;;11.90;5.65;;;;;;;21.11;66.59;100826.25;4973112;28;20466;-66
2021/08/15 05:57:49;;;;;;;7.45;5.13;;;;;;;21.05;66.28;100827.97;4988249;28;20023;-69
2021/08/15 06:00:15;;;;;;;8.65;4.93;;;;;;;20.99;66.62;100813.13;4973265;28;20042;-69
2021/08/15 06:02:42;;;;;;;9.48;5.53;;;;;;;21.11;66.45;100815.75;4973263;28;20029;-71
2021/08/15 06:05:09;;;;;;;8.13;4.95;;;;;;;21.27;65.98;100827.13;4972830;28;20853;-66
2021/08/15 06:07:34;;;;;;;8.50;4.63;;;;;;;21.45;65.46;100825.31;4972970;28;20023;-66
2021/08/15 06:10:00;;;;;;;7.68;5.05;;;;;;;21.68;64.83;100822.66;4973312;28;20034;-68
2021/08/15 06:12:25;;;;;;;8.32;4.65;;;;;;;21.48;65.04;100814.78;4973107;28;20462;-68
2021/08/15 06:14:50;;;;;;;6.72;4.63;;;;;;;21.66;65.34;100816.53;4970783;28;20046;-69
2021/08/15 06:17:16;;;;;;;8.25;5.00;;;;;;;21.83;64.10;100786.69;4987747;28;20031;-67
2021/08/15 06:19:42;;;;;;;7.72;4.60;;;;;;;22.08;63.82;100811.09;4972345;28;20035;-66
2021/08/15 06:22:09;;;;;;;9.80;4.78;;;;;;;22.19;63.64;100785.59;4972771;28;20109;-68
2021/08/15 06:24:35;;;;;;;7.50;4.60;;;;;;;22.45;65.15;100811.81;4972613;28;20458;-69
2021/08/15 06:27:02;;;;;;;7.07;4.60;;;;;;;22.59;63.16;100816.97;4972497;28;20106;-67
2021/08/15 06:29:28;;;;;;;10.13;5.10;;;;;;;22.73;63.10;100814.22;4971533;28;20141;-70
2021/08/15 06:31:53;;;;;;;9.88;5.43;;;;;;;22.62;65.20;100784.50;4972415;28;20513;-66
2021/08/15 06:34:19;;;;;;;8.30;5.07;;;;;;;22.85;64.37;100801.84;4972293;28;20022;-70
2021/08/15 06:36:44;;;;;;;8.23;4.80;;;;;;;23.10;62.05;100810.38;4972265;28;20029;-69
2021/08/15 06:39:10;;;;;;;9.18;5.43;;;;;;;22.95;61.79;100764.00;4972735;28;20026;-67
2021/08/15 06:41:35;;;;;;;9.40;4.80;;;;;;;23.29;61.58;100811.13;4972278;28;20066;-72
2021/08/15 06:44:01;;;;;;;8.63;5.18;;;;;;;23.43;60.74;100809.19;4972102;28;20058;-69
2021/08/15 06:46:26;;;;;;;6.70;4.75;;;;;;;23.49;60.33;100807.38;4972021;28;20022;-66
2021/08/15 06:48:52;;;;;;;8.07;4.88;;;;;;;23.46;60.68;100791.63;4970475;28;20031;-66
2021/08/15 06:51:17;;;;;;;9.52;4.93;;;;;;;23.52;58.14;100770.47;4972468;28;20021;-72
2021/08/15 06:53:43;;;;;;;7.38;4.03;;;;;;;23.85;57.72;100784.09;4972279;28;20030;-70
2021/08/15 06:56:10;;;;;;;8.27;4.35;;;;;;;24.09;56.65;100806.69;4972193;28;20449;-66
2021/08/15 06:58:36;;;;;;;8.38;4.13;;;;;;;24.15;56.48;100805.72;4972263;28;20019;-67
2021/08/15 07:01:03;;;;;;;7.38;4.32;;;;;;;24.26;55.76;100808.22;4972187;28;20528;-70
2021/08/15 07:03:28;;;;;;;7.65;4.40;;;;;;;24.32;55.30;100810.75;4972395;28;20031;-67
2021/08/15 07:05:54;;;;;;;8.63;4.07;;;;;;;24.35;54.83;100805.41;4972551;28;20556;-70
2021/08/15 07:08:19;;;;;;;7.05;4.50;;;;;;;24.26;55.28;100795.88;4972475;28;20533;-70
2021/08/15 07:10:45;;;;;;;8.38;4.38;;;;;;;24.32;54.55;100795.78;4972198;28;20038;-69
2021/08/15 07:13:10;;;;;;;7.78;4.60;;;;;;;24.61;52.66;100794.50;4972625;28;20047;-67
2021/08/15 07:15:36;;;;;;;8.13;4.45;;;;;;;24.66;53.66;100803.22;4971189;28;20474;-71
2021/08/15 07:18:02;;;;;;;7.97;3.60;;;;;;;24.69;51.86;100797.88;4971707;28;20038;-70
2021/08/15 07:20:28;;;;;;;7.28;3.65;;;;;;;24.71;49.90;100797.84;4971852;28;20023;-69
2021/08/15 07:22:54;;;;;;;6.35;4.30;;;;;;;24.63;48.10;100783.88;4972268;28;20022;-70
2021/08/15 07:25:20;;;;;;;6.38;3.80;;;;;;;24.70;53.78;100778.50;4971816;28;20030;-70
2021/08/15 07:27:46;;;;;;;7.75;3.80;;;;;;;24.93;48.08;100785.16;4969804;28;20121;-68
2021/08/15 07:30:13;;;;;;;6.68;3.70;;;;;;;25.04;47.03;100780.56;4972194;28;20121;-69
2021/08/15 07:33:08;;;;;;;6.57;3.67;;;;;;;25.18;45.89;100784.72;4971967;28;20030;-70
2021/08/15 07:35:37;;;;;;;6.78;3.45;;;;;;;25.35;45.60;100782.63;4929836;29;20055;-69
2021/08/15 07:38:06;;;;;;;6.22;3.83;;;;;;;25.73;48.63;100779.28;4930746;29;20028;-70
2021/08/15 07:40:32;;;;;;;10.15;4.05;;;;;;;25.66;47.50;100775.91;4931144;29;20074;-67
2021/08/15 07:42:57;;;;;;;6.57;3.97;;;;;;;25.49;45.64;100778.88;4931212;29;20118;-67
2021/08/15 07:45:31;;;;;;;8.05;3.92;;;;;;;25.41;45.25;100786.97;4930945;29;20152;-69
2021/08/15 07:47:57;;;;;;;10.30;4.00;;;;;;;25.54;43.04;100784.94;4931382;29;20506;-69
2021/08/15 07:50:23;;;;;;;4.78;3.53;;;;;;;25.70;43.42;100772.28;4931377;29;20099;-66
2021/08/15 07:52:48;;;;;;;5.65;3.70;;;;;;;25.95;42.78;100777.91;4930685;29;20039;-69
2021/08/15 07:55:14;;;;;;;7.45;3.72;;;;;;;26.18;42.68;100775.66;4931016;29;20040;-67
2021/08/15 07:57:40;;;;;;;6.47;3.70;;;;;;;26.44;42.22;100775.03;4915272;29;20496;-69
2021/08/15 08:00:07;;;;;;;6.03;3.65;;;;;;;26.72;42.79;100771.75;4931222;29;20059;-70
2021/08/15 08:02:33;;;;;;;6.45;3.75;;;;;;;26.64;40.37;100775.44;4931465;29;20091;-69
2021/08/15 08:04:59;;;;;;;10.00;3.95;;;;;;;26.79;40.35;100778.63;4930551;29;20079;-68
2021/08/15 08:07:25;;;;;;;6.43;3.92;;;;;;;26.93;38.42;100773.84;4915837;29;20560;-69
2021/08/15 08:09:51;;;;;;;13.00;4.28;;;;;;;27.05;38.46;100764.69;4934331;29;20031;-68
2021/08/15 08:12:18;;;;;;;13.85;4.72;;;;;;;26.98;37.41;100741.06;4960273;28;20069;-66
2021/08/15 08:14:45;;;;;;;10.65;4.70;;;;;;;27.09;37.63;100744.28;4975046;28;20031;-67
2021/08/15 08:17:15;;;;;;;8.10;4.30;;;;;;;27.33;37.09;100747.16;4975257;28;20153;-66
2021/08/15 08:19:41;;;;;;;7.97;3.97;;;;;;;27.50;40.24;100755.50;4975264;28;20516;-69
2021/08/15 08:22:07;;;;;;;7.95;4.22;;;;;;;27.54;38.92;100749.22;4975209;28;20038;-69
2021/08/15 08:24:33;;;;;;;6.53;3.45;;;;;;;27.54;38.32;100748.34;4975084;28;20026;-66
2021/08/15 08:26:59;;;;;;;9.93;4.07;;;;;;;27.49;38.68;100743.19;4957882;28;20482;-69
2021/08/15 08:29:24;;;;;;;7.18;3.60;;;;;;;27.58;37.11;100752.66;4957459;28;20420;-69
2021/08/15 08:31:50;;;;;;;7.75;3.85;;;;;;;27.60;37.12;100751.69;4953961;28;20023;-69
2021/08/15 08:34:16;;;;;;;8.95;3.60;;;;;;;27.75;36.40;100742.41;4961267;28;20039;-67
2021/08/15 08:36:41;;;;;;;7.65;4.10;;;;;;;27.85;36.04;100743.00;4962581;28;20034;-71
2021/08/15 08:39:07;;;;;;;6.78;3.97;;;;;;;27.82;38.12;100728.97;4961818;28;20029;-71
2021/08/15 08:41:33;;;;;;;7.35;3.33;;;;;;;27.92;36.13;100730.41;4962823;28;20106;-70
2021/08/15 08:44:00;;;;;;;6.70;3.28;;;;;;;27.79;36.30;100702.50;4975041;28;20030;-70
2021/08/15 08:46:26;;;;;;;5.47;3.58;;;;;;;27.78;35.73;100733.50;4957157;28;20087;-70
2021/08/15 08:48:52;;;;;;;7.85;3.90;;;;;;;27.96;36.07;100728.53;4957309;28;20503;-70
2021/08/15 08:51:21;;;;;;;8.82;4.50;;;;;;;28.09;35.54;100717.50;4955804;28;20110;-70
2021/08/15 08:53:49;;;;;;;;;;;;;;;28.35;34.89;100726.41;4955199;28;20055;-67
2021/08/15 08:56:16;;;;;;;11.35;4.07;;;;;;;28.57;35.44;100729.22;4959465;28;19965;-69
2021/08/15 08:58:42;;;;;;;8.55;4.00;;;;;;;28.47;34.55;100724.25;4958616;28;20433;-67
2021/08/15 09:01:11;;;;;;;7.07;4.20;;;;;;;28.65;37.32;100718.31;4959159;28;20034;-70
2021/08/15 09:03:37;;;;;;;;;;;;;;;28.73;34.84;100720.75;4962584;28;20019;-67
2021/08/15 09:06:03;;;;;;;10.10;4.53;;;;;;;28.80;35.84;100724.03;4985356;28;19921;-68
2021/08/15 09:08:34;;;;;;;7.50;3.95;;;;;;;28.96;34.70;100719.03;4954157;28;20031;-70
2021/08/15 09:11:35;;;;;;;8.10;4.00;;;;;;;29.02;34.56;100717.06;4962239;28;20170;-69
2021/08/15 09:14:04;;;;;;;6.93;3.78;;;;;;;28.93;35.01;100680.16;4950519;29;20036;-70
2021/08/15 09:16:49;;;;;;;9.30;4.50;;;;;;;29.20;33.68;100706.66;4951518;28;20031;-70
2021/08/15 09:19:34;;;;;;;11.35;4.60;;;;;;;29.36;33.74;100704.34;4951416;28;20044;-69
2021/08/15 09:22:22;;;;;;;8.63;4.55;;;;;;;29.65;32.72;100700.53;4950564;29;20478;-71
2021/08/15 09:24:56;;;;;;;12.15;4.60;;;;;;;29.89;33.25;100702.28;4949902;29;20032;-69
2021/08/15 09:27:26;;;;;;;15.85;8.60;;;;;;;29.91;33.57;100700.44;4950524;29;20411;-69
2021/08/15 09:30:12;;;;;;;7.35;3.78;;;;;;;30.04;31.91;100706.16;4951591;29;20051;-69
2021/08/15 09:32:53;;;;;;;7.63;3.80;;;;;;;30.15;30.58;100694.13;4951176;29;20031;-71
2021/08/15 09:35:26;;;;;;;11.48;3.88;;;;;;;30.10;31.21;100695.25;4950585;29;20054;-69
2021/08/15 09:38:06;;;;;;;19.60;9.13;;;;;;;29.93;31.88;100694.13;4951541;29;20031;-67
2021/08/15 09:40:39;;;;;;;11.45;5.07;;;;;;;30.07;33.14;100680.28;4951232;29;20039;-67
2021/08/15 09:43:07;;;;;;;7.25;3.72;;;;;;;30.11;31.47;100679.22;4950433;29;20561;-69
2021/08/15 09:45:39;;;;;;;7.82;3.63;;;;;;;30.17;31.01;100660.31;4950452;29;20482;-70
2021/08/15 09:48:32;;;;;;;7.82;3.63;;;;;;;30.38;31.22;100676.34;4951823;28;20477;-70
2021/08/15 09:51:09;;;;;;;7.07;3.90;;;;;;;30.58;31.43;100663.97;4936425;28;20047;-71
2021/08/15 09:53:38;;;;;;;9.23;3.97;;;;;;;30.77;31.55;100656.91;4957864;28;20106;-71
2021/08/15 09:56:04;;;;;;;6.15;3.47;;;;;;;30.80;30.78;100645.22;4958252;28;20121;-70
2021/08/15 09:58:30;;;;;;;10.20;4.55;;;;;;;30.78;30.23;100610.66;4959332;28;20112;-72
2021/08/15 10:00:56;;;;;;;7.28;3.50;;;;;;;31.06;32.26;100630.69;4938931;28;20066;-71
2021/08/15 10:03:22;;;;;;;9.10;3.65;;;;;;;31.12;31.14;100633.13;4959994;28;20035;-71
2021/08/15 10:05:48;;;;;;;6.28;3.53;;;;;;;30.87;31.61;100625.38;4986628;28;20038;-72
2021/08/15 10:08:14;;;;;;;6.50;4.18;;;;;;;30.99;32.05;100639.91;4990602;28;20026;-72
2021/08/15 10:10:40;;;;;;;6.25;3.78;;;;;;;31.16;31.95;100633.00;4988340;28;20393;-71
2021/08/15 10:13:07;;;;;;;14.10;5.53;;;;;;;31.09;30.51;100622.59;4990104;28;20057;-70
2021/08/15 10:15:34;;;;;;;8.80;3.70;;;;;;;30.96;29.84;100616.94;4988431;28;20044;-72
2021/08/15 10:18:06;;;;;;;11.18;3.83;;;;;;;31.28;30.58;100619.09;4970155;28;20485;-70
2021/08/15 10:20:31;;;;;;;5.85;3.55;;;;;;;31.12;31.08;100593.13;4954382;28;20529;-68
2021/08/15 10:23:07;;;;;;;10.60;3.90;;;;;;;30.90;29.09;100603.88;4956831;28;20035;-68
2021/08/15 10:25:41;;;;;;;6.15;3.70;;;;;;;31.49;30.82;100609.19;4953603;28;20041;-69
2021/08/15 10:28:07;;;;;;;8.52;4.40;;;;;;;31.55;28.31;100584.84;4966976;28;20027;-70
2021/08/15 10:30:32;;;;;;;11.00;4.85;;;;;;;32.00;27.83;100593.34;4967375;28;20390;-70
2021/08/15 10:32:57;;;;;;;12.13;5.95;;;;;;;32.29;27.44;100598.13;4971114;28;20150;-68
2021/08/15 10:35:24;;;;;;;11.07;4.68;;;;;;;32.54;28.27;100595.06;4968965;28;20053;-68
2021/08/15 10:38:01;;;;;;;8.07;3.80;;;;;;;32.27;26.43;100576.84;4968446;28;20467;-72
2021/08/15 10:40:39;;;;;;;15.00;4.22;;;;;;;32.48;27.00;100585.53;4968678;28;20073;-70
2021/08/15 10:43:06;;;;;;;13.27;4.72;;;;;;;32.73;25.92;100574.38;4970419;28;20046;-71
2021/08/15 10:45:32;;;;;;;13.38;5.82;;;;;;;32.90;27.92;100578.84;4972610;28;20049;-71
2021/08/15 10:48:09;;;;;;;8.50;4.00;;;;;;;32.96;25.36;100564.28;4958302;28;20023;-71
2021/08/15 10:50:47;;;;;;;13.52;4.32;;;;;;;32.90;27.26;100572.66;4959701;28;20035;-70
2021/08/15 10:53:28;;;;;;;8.82;3.83;;;;;;;32.91;25.40;100566.31;4964547;28;20030;-70
2021/08/15 10:55:55;;;;;;;7.85;4.07;;;;;;;32.89;26.75;100571.78;4970199;28;20047;-72
2021/08/15 10:58:40;;;;;;;5.90;3.50;;;;;;;33.10;25.07;100565.31;4964919;28;20613;-71
2021/08/15 11:01:10;;;;;;;8.32;4.63;;;;;;;33.09;25.32;100550.19;4955815;28;20067;-72
2021/08/15 11:03:47;;;;;;;13.20;4.70;;;;;;;33.45;25.01;100549.97;4958651;28;20023;-76
2021/08/15 11:06:31;;;;;;;6.85;3.40;;;;;;;33.70;24.41;100549.38;4953067;28;20034;-74
2021/08/15 11:09:00;;;;;;;8.02;3.80;;;;;;;33.84;24.90;100551.25;4953460;28;20089;-75
2021/08/15 11:11:30;;;;;;;7.90;3.67;;;;;;;33.49;25.59;100534.59;4957603;28;20092;-73
2021/08/15 11:14:17;;;;;;;5.65;3.35;;;;;;;33.30;24.37;100541.00;4952809;28;20043;-75
2021/08/15 11:16:50;;;;;;;7.47;3.70;;;;;;;33.35;25.28;100538.06;4954353;28;20024;-71
2021/08/15 11:19:16;;;;;;;5.28;3.75;;;;;;;33.52;24.35;100534.41;4976665;28;20039;-71
2021/08/15 11:22:02;;;;;;;7.90;4.22;;;;;;;33.71;23.95;100523.47;4977996;28;20615;-69